Chautauqua County-Dunkirk, NY

3:01 PM EDT on September 01, 2014 (GMT -0400)
Chautauqua County-Dunkirk | Change Station
CLOSE
Current Station
Airport
Location: Dunkirk,
Elevation: 692 ft
Nearby Weather Stations

Elev 692 ft 42.49 °N, 79.28 °W | Updated 8 minutes ago

Scattered Clouds
Scattered Clouds
82 °F
Feels Like 86 °F
N
12
Wind Variable Wind from SSW
Gusts 24 mph

Today
High -- | Low -- °F
--% Chance of Precip.
Yesterday
High -- | Low -- °F
Precip. -- in
6:42 AM 7:51 PM
Waxing Crescent, 43% visible
Pressure 29.89 in
Visibility 10.0 miles
Clouds Few 3400 ft
Scattered Clouds 4200 ft
Scattered Clouds 6500 ft
Heat Index 86 °F
Dew Point 69 °F
Humidity 65%
Rainfall 0.01 in
Snow Depth Not available.
UV 6 out of 12
Pollen 8.90 out of 12
PM2.5 Good
Flu Activity Not available.
METAR KDKK 011853Z AUTO 20010G21KT 10SM FEW034 SCT042 SCT065 28/21 A2990 RMK AO2 SLP120 T02780206

More Conditions Fewer Conditions

Pressure 29.89 in
Visibility 10.0 miles
Clouds Few 3400 ft
Scattered Clouds 4200 ft
Scattered Clouds 6500 ft
Heat Index 86 °F
Dew Point 69 °F
Humidity 65%
Rainfall 0.01 in
Snow Depth Not available.
UV 6 out of 12
Pollen 8.90 out of 12
PM2.5 Good
Flu Activity Not available.
METAR KDKK 011853Z AUTO 20010G21KT 10SM FEW034 SCT042 SCT065 28/21 A2990 RMK AO2 SLP120 T02780206

More Conditions Fewer Conditions

10-Day Weather Forecast

Almanac

Astronomy

Sep. 01, 2014 Rise Set
Actual Time 6:42 AM EDT 7:51 PM EDT
Civil Twilight 6:13 AM EDT 8:20 PM EDT
Nautical Twilight 5:38 AM EDT 8:54 PM EDT
Astronomical Twilight 5:01 AM EDT 9:30 PM EDT
Moon 1:34 PM EDT 11:42 PM EDT
Length of Visible Light 14h 07m
Length of Day
13h 09m
Tomorrow will be 2m 45s shorter.
Waxing Crescent, 43% of the Moon is Illuminated
Today
Waxing Crescent
Sep 2
First Quarter
Sep 8
Full
Sep 15
Last Quarter
Sep 24
New

Today's Extremes

State Highs State Lows

Community

WunderPhotos

Upload Photos

1,749,367 photos uploaded!

WunderBlogs® & News

Nearby

Air Quality

  Air Quality AQ Index Pollutant
Yesterday Moderate
PM2.5
Yesterday Good
OZONE
Current Good
PM2.5
Monday Moderate
PM2.5
Monday Moderate
OZONE
Tuesday Good
PM2.5
Tuesday Good
OZONE

Snow Depth

Station Depth Elevation
No new snow has been reported.

Earthquake Activity

City Distance Mag. Time & Date
No recent earthquake activity has been reported nearby.
Minimum magnitude displayed is 2.5.

Coastal Water Temperatures

Place Temperature
Buffalo, NY 73.9 °F

Nearby Weather Stations